NCAR-RAP Real-Time Weather Data

Output produced by METARs form (14 October 2019  23:30 UTC)
found at http://weather.rap.ucar.edu/surface/
 
K8D3 142256Z AUTO 10007KT 08/02 A2983 RMK AO1 SLP114 T00830022
K8D3 142156Z AUTO 12008KT 09/02 A2982 RMK AO1 SLP110 T00940022